createdAt,value
2023-02-25T00:00:34.229Z,100.00
2023-02-25T00:03:01.567Z,100.00
2023-02-25T00:05:31.786Z,100.00
2023-02-25T00:07:58.693Z,100.00
2023-02-25T00:10:25.074Z,100.00
2023-02-25T00:12:51.457Z,100.00
2023-02-25T00:15:17.900Z,100.00
2023-02-25T00:17:44.319Z,100.00
2023-02-25T00:20:13.201Z,100.00
2023-02-25T00:22:39.903Z,100.00
2023-02-25T00:25:06.969Z,100.00
2023-02-25T00:27:33.379Z,100.00
2023-02-25T00:30:00.513Z,100.00
2023-02-25T00:32:27.232Z,100.00
2023-02-25T00:34:53.688Z,100.00
2023-02-25T00:37:20.234Z,100.00
2023-02-25T00:39:46.704Z,100.00
2023-02-25T00:42:17.300Z,100.00
2023-02-25T00:44:45.220Z,100.00
2023-02-25T00:47:11.903Z,100.00
2023-02-25T00:49:38.291Z,100.00
2023-02-25T00:52:04.656Z,100.00
2023-02-25T00:54:31.038Z,100.00
2023-02-25T00:56:57.468Z,100.00
2023-02-25T00:59:23.857Z,100.00
2023-02-25T01:01:50.446Z,100.00
2023-02-25T01:04:16.870Z,100.00
2023-02-25T01:06:43.832Z,100.00
2023-02-25T01:09:16.594Z,100.00
2023-02-25T01:11:45.843Z,100.00
2023-02-25T01:14:14.878Z,100.00
2023-02-25T01:16:41.685Z,100.00
2023-02-25T01:19:11.379Z,100.00
2023-02-25T01:21:40.814Z,100.00
2023-02-25T01:24:13.715Z,100.00
2023-02-25T01:26:42.148Z,100.00
2023-02-25T01:29:09.868Z,100.00
2023-02-25T01:31:38.137Z,100.00
2023-02-25T01:34:06.718Z,100.00
2023-02-25T01:36:33.609Z,100.00
2023-02-25T01:39:01.151Z,100.00
2023-02-25T01:41:29.532Z,100.00
2023-02-25T01:44:12.057Z,100.00
2023-02-25T01:46:38.992Z,100.00
2023-02-25T01:49:18.936Z,100.00
2023-02-25T01:51:48.644Z,100.00
2023-02-25T01:54:15.770Z,100.00
2023-02-25T01:56:48.164Z,100.00
2023-02-25T01:59:15.465Z,100.00
2023-02-25T02:01:42.528Z,100.00
2023-02-25T02:04:10.843Z,100.00
2023-02-25T02:06:42.656Z,100.00
2023-02-25T02:09:13.319Z,100.00
2023-02-25T02:11:39.857Z,100.00
2023-02-25T02:14:07.722Z,100.00
2023-02-25T02:16:44.463Z,100.00
2023-02-25T02:19:29.582Z,100.00
2023-02-25T02:22:02.986Z,100.00
2023-02-25T02:24:47.623Z,100.00
2023-02-25T02:27:17.074Z,100.00
2023-02-25T02:30:08.102Z,100.00
2023-02-25T02:32:57.474Z,100.00
2023-02-25T02:35:42.603Z,100.00
2023-02-25T02:38:31.970Z,100.00
2023-02-25T02:41:06.838Z,100.00
2023-02-25T02:43:48.495Z,100.00
2023-02-25T02:46:25.652Z,100.00
2023-02-25T02:48:56.613Z,100.00
2023-02-25T02:51:26.862Z,100.00
2023-02-25T02:53:56.222Z,100.00
2023-02-25T02:56:25.134Z,100.00
2023-02-25T02:58:57.699Z,100.00
2023-02-25T03:01:32.956Z,100.00
2023-02-25T03:04:02.927Z,100.00
2023-02-25T03:06:33.100Z,100.00
2023-02-25T03:09:06.414Z,100.00
2023-02-25T03:11:33.549Z,100.00
2023-02-25T03:13:59.948Z,100.00
2023-02-25T03:16:31.193Z,100.00
2023-02-25T03:19:09.085Z,100.00
2023-02-25T03:21:39.660Z,100.00
2023-02-25T03:24:08.736Z,100.00
2023-02-25T03:26:35.793Z,100.00
2023-02-25T03:29:02.628Z,100.00
2023-02-25T03:31:36.726Z,100.00
2023-02-25T03:34:07.603Z,100.00
2023-02-25T03:36:37.681Z,100.00
2023-02-25T03:39:09.671Z,100.00
2023-02-25T03:41:38.736Z,100.00
2023-02-25T03:44:09.890Z,100.00
2023-02-25T03:46:37.109Z,100.00
2023-02-25T03:49:04.253Z,100.00
2023-02-25T03:51:34.536Z,100.00
2023-02-25T03:54:00.971Z,100.00
2023-02-25T03:56:27.858Z,100.00
2023-02-25T03:58:54.275Z,100.00
2023-02-25T04:01:27.930Z,100.00
2023-02-25T04:03:54.327Z,100.00
2023-02-25T04:06:23.190Z,100.00
2023-02-25T04:08:50.083Z,100.00
2023-02-25T04:11:16.691Z,100.00
2023-02-25T04:13:43.107Z,100.00
2023-02-25T04:16:09.531Z,100.00
2023-02-25T04:18:35.954Z,100.00
2023-02-25T04:21:02.328Z,100.00
2023-02-25T04:23:28.744Z,100.00
2023-02-25T04:25:55.098Z,100.00
2023-02-25T04:28:21.501Z,100.00
2023-02-25T04:30:48.206Z,100.00
2023-02-25T04:33:14.653Z,100.00
2023-02-25T04:35:41.097Z,100.00
2023-02-25T04:38:09.220Z,100.00
2023-02-25T04:40:36.359Z,100.00
2023-02-25T04:43:03.082Z,100.00
2023-02-25T04:45:29.454Z,100.00
2023-02-25T04:47:57.706Z,100.00
2023-02-25T04:50:25.145Z,100.00
2023-02-25T04:52:52.003Z,100.00
2023-02-25T04:55:18.474Z,100.00
2023-02-25T04:57:44.900Z,100.00
2023-02-25T05:00:24.096Z,100.00
2023-02-25T05:02:50.729Z,100.00
2023-02-25T05:05:17.558Z,100.00
2023-02-25T05:07:44.112Z,100.00
2023-02-25T05:10:12.717Z,100.00
2023-02-25T05:12:39.094Z,100.00
2023-02-25T05:15:08.276Z,100.00
2023-02-25T05:17:35.925Z,100.00
2023-02-25T05:20:02.434Z,100.00
2023-02-25T05:22:28.823Z,100.00
2023-02-25T05:24:55.196Z,100.00
2023-02-25T05:27:21.573Z,100.00
2023-02-25T05:29:48.096Z,100.00
2023-02-25T05:32:15.659Z,100.00
2023-02-25T05:34:42.094Z,100.00
2023-02-25T05:37:08.483Z,100.00
2023-02-25T05:39:34.873Z,100.00
2023-02-25T05:42:01.323Z,100.00
2023-02-25T05:44:27.709Z,100.00
2023-02-25T05:46:54.110Z,100.00
2023-02-25T05:49:20.776Z,100.00
2023-02-25T05:51:49.102Z,100.00
2023-02-25T05:54:15.492Z,100.00
2023-02-25T05:56:41.876Z,100.00
2023-02-25T05:59:08.264Z,100.00
2023-02-25T06:01:34.653Z,100.00
2023-02-25T06:04:01.175Z,100.00
2023-02-25T06:06:29.343Z,100.00
2023-02-25T06:08:55.823Z,100.00
2023-02-25T06:11:27.469Z,100.00
2023-02-25T06:13:54.767Z,100.00
2023-02-25T06:16:21.755Z,100.00
2023-02-25T06:18:49.497Z,100.00
2023-02-25T06:21:15.942Z,100.00
2023-02-25T06:23:44.074Z,100.00
2023-02-25T06:26:12.570Z,100.00
2023-02-25T06:28:39.026Z,100.00
2023-02-25T06:31:10.177Z,100.00
2023-02-25T06:33:37.401Z,100.00
2023-02-25T06:36:05.047Z,100.00
2023-02-25T06:38:32.556Z,100.00
2023-02-25T06:40:58.950Z,100.00
2023-02-25T06:43:25.371Z,100.00
2023-02-25T06:45:51.867Z,100.00
2023-02-25T06:48:18.252Z,100.00
2023-02-25T06:50:44.641Z,100.00
2023-02-25T06:53:11.032Z,100.00
2023-02-25T06:55:40.327Z,100.00
2023-02-25T06:58:06.892Z,100.00
2023-02-25T07:00:33.309Z,100.00
2023-02-25T07:03:02.840Z,100.00
2023-02-25T07:05:29.350Z,100.00
2023-02-25T07:07:55.719Z,100.00
2023-02-25T07:10:22.115Z,100.00
2023-02-25T07:12:48.511Z,100.00
2023-02-25T07:15:14.892Z,100.00
2023-02-25T07:17:41.265Z,100.00
2023-02-25T07:20:08.238Z,100.00
2023-02-25T07:22:34.624Z,100.00
2023-02-25T07:25:01.015Z,100.00
2023-02-25T07:27:27.396Z,100.00
2023-02-25T07:29:54.864Z,100.00
2023-02-25T07:32:22.669Z,100.00
2023-02-25T07:34:49.119Z,100.00
2023-02-25T07:37:15.503Z,100.00
2023-02-25T07:39:41.872Z,100.00
2023-02-25T07:42:08.248Z,100.00
2023-02-25T07:44:35.913Z,100.00
2023-02-25T07:47:02.363Z,100.00
2023-02-25T07:49:28.739Z,100.00
2023-02-25T07:51:55.296Z,100.00
2023-02-25T07:54:22.760Z,100.00
2023-02-25T07:56:52.044Z,100.00
2023-02-25T07:59:19.031Z,100.00
2023-02-25T08:01:45.568Z,100.00
2023-02-25T08:04:12.012Z,100.00
2023-02-25T08:06:40.917Z,100.00
2023-02-25T08:09:08.364Z,100.00
2023-02-25T08:11:34.831Z,100.00
2023-02-25T08:14:01.703Z,100.00
2023-02-25T08:16:28.201Z,100.00
2023-02-25T08:18:54.755Z,100.00
2023-02-25T08:21:23.411Z,100.00
2023-02-25T08:23:51.880Z,100.00
2023-02-25T08:26:19.040Z,100.00
2023-02-25T08:28:46.141Z,100.00
2023-02-25T08:31:12.898Z,100.00
2023-02-25T08:33:49.561Z,100.00
2023-02-25T08:36:24.989Z,100.00
2023-02-25T08:38:52.248Z,100.00
2023-02-25T08:41:21.006Z,100.00
2023-02-25T08:43:54.180Z,100.00
2023-02-25T08:46:25.211Z,100.00
2023-02-25T08:48:52.721Z,100.00
2023-02-25T08:51:19.698Z,100.00
2023-02-25T08:53:46.122Z,100.00
2023-02-25T08:56:14.476Z,100.00
2023-02-25T08:58:41.305Z,100.00
2023-02-25T09:01:12.851Z,100.00
2023-02-25T09:03:52.499Z,100.00
2023-02-25T09:06:27.755Z,100.00
2023-02-25T09:08:55.253Z,100.00
2023-02-25T09:11:23.407Z,100.00
2023-02-25T09:13:50.006Z,100.00
2023-02-25T09:16:17.289Z,100.00
2023-02-25T09:18:45.246Z,100.00
2023-02-25T09:21:12.858Z,100.00
2023-02-25T09:23:39.498Z,100.00
2023-02-25T09:26:09.713Z,100.00
2023-02-25T09:28:36.537Z,100.00
2023-02-25T09:31:03.306Z,100.00
2023-02-25T09:33:31.822Z,100.00
2023-02-25T09:36:24.515Z,100.00
2023-02-25T09:38:51.765Z,100.00
2023-02-25T09:41:42.409Z,100.00
2023-02-25T09:44:15.919Z,100.00
2023-02-25T09:46:49.512Z,100.00
2023-02-25T09:49:43.729Z,100.00
2023-02-25T09:52:19.099Z,100.00
2023-02-25T09:54:47.209Z,100.00
2023-02-25T09:57:19.066Z,100.00
2023-02-25T09:59:46.929Z,100.00
2023-02-25T10:02:25.732Z,100.00
2023-02-25T10:05:21.512Z,100.00
2023-02-25T10:08:04.039Z,100.00
2023-02-25T10:10:38.696Z,100.00
2023-02-25T10:13:36.067Z,100.00
2023-02-25T10:16:09.825Z,100.00
2023-02-25T10:18:42.772Z,100.00
2023-02-25T10:21:36.888Z,100.00
2023-02-25T10:24:34.718Z,100.00
2023-02-25T10:27:17.748Z,100.00
2023-02-25T10:29:53.072Z,100.00
2023-02-25T10:32:31.806Z,100.00
2023-02-25T10:35:00.563Z,100.00
2023-02-25T10:37:33.022Z,100.00
2023-02-25T10:40:01.916Z,100.00
2023-02-25T10:42:29.418Z,100.00
2023-02-25T10:45:01.760Z,100.00
2023-02-25T10:47:33.708Z,100.00
2023-02-25T10:50:12.195Z,100.00
2023-02-25T10:52:56.750Z,100.00
2023-02-25T10:55:26.155Z,100.00
2023-02-25T10:57:52.684Z,100.00
2023-02-25T11:00:30.282Z,100.00
2023-02-25T11:03:01.231Z,100.00
2023-02-25T11:05:30.852Z,100.00
2023-02-25T11:07:57.439Z,100.00
2023-02-25T11:10:25.045Z,100.00
2023-02-25T11:12:53.969Z,100.00
2023-02-25T11:15:43.542Z,100.00
2023-02-25T11:18:21.044Z,100.00
2023-02-25T11:20:56.123Z,100.00
2023-02-25T11:23:43.111Z,100.00
2023-02-25T11:26:15.198Z,100.00
2023-02-25T11:28:48.424Z,100.00
2023-02-25T11:31:24.042Z,100.00
2023-02-25T11:34:03.584Z,100.00
2023-02-25T11:36:33.265Z,100.00
2023-02-25T11:39:18.448Z,100.00
2023-02-25T11:41:47.014Z,100.00
2023-02-25T11:44:21.586Z,100.00
2023-02-25T11:47:16.585Z,100.00
2023-02-25T11:49:51.296Z,99.26
2023-02-25T11:52:43.745Z,96.12
2023-02-25T11:55:30.209Z,92.86
2023-02-25T11:58:28.933Z,90.88
2023-02-25T12:01:02.922Z,88.61
2023-02-25T12:03:56.406Z,89.65
2023-02-25T12:06:45.417Z,87.41
2023-02-25T12:09:39.896Z,85.26
2023-02-25T12:12:19.514Z,85.10
2023-02-25T12:15:10.299Z,84.22
2023-02-25T12:17:47.809Z,87.34
2023-02-25T12:20:29.406Z,86.68
2023-02-25T12:23:28.226Z,86.52
2023-02-25T12:26:04.028Z,84.63
2023-02-25T12:28:45.332Z,84.65
2023-02-25T12:31:30.296Z,83.04
2023-02-25T12:34:03.622Z,83.59
2023-02-25T12:36:47.885Z,81.58
2023-02-25T12:39:18.885Z,80.81
2023-02-25T12:42:09.553Z,80.98
2023-02-25T12:45:01.387Z,79.88
2023-02-25T12:47:46.346Z,78.85
2023-02-25T12:50:57.368Z,79.04
2023-02-25T12:53:45.204Z,79.06
2023-02-25T12:56:27.785Z,77.78
2023-02-25T12:59:22.330Z,76.87
2023-02-25T13:01:53.439Z,78.90
2023-02-25T13:04:32.058Z,76.86
2023-02-25T13:07:16.947Z,75.23
2023-02-25T13:10:11.097Z,77.13
2023-02-25T13:12:58.051Z,77.02
2023-02-25T13:16:07.365Z,77.79
2023-02-25T13:18:50.733Z,76.47
2023-02-25T13:21:27.393Z,74.69
2023-02-25T13:24:17.936Z,73.50
2023-02-25T13:27:05.517Z,72.45
2023-02-25T13:29:41.358Z,69.38
2023-02-25T13:32:27.176Z,67.71
2023-02-25T13:35:15.523Z,68.22
2023-02-25T13:38:03.458Z,68.56
2023-02-25T13:40:57.299Z,70.07
2023-02-25T13:44:01.856Z,67.91
2023-02-25T13:46:56.029Z,69.11
2023-02-25T13:49:47.032Z,68.86
2023-02-25T13:52:21.533Z,66.05
2023-02-25T13:55:28.405Z,66.58
2023-02-25T13:58:01.822Z,64.87
2023-02-25T14:00:46.505Z,64.25
2023-02-25T14:03:39.424Z,63.27
2023-02-25T14:06:18.006Z,60.98
2023-02-25T14:09:15.418Z,59.34
2023-02-25T14:12:22.391Z,58.28
2023-02-25T14:15:22.895Z,59.20
2023-02-25T14:18:07.428Z,59.84
2023-02-25T14:20:38.954Z,59.07
2023-02-25T14:23:28.467Z,57.99
2023-02-25T14:26:38.424Z,54.46
2023-02-25T14:29:18.122Z,53.87
2023-02-25T14:32:06.493Z,54.53
2023-02-25T14:34:50.719Z,54.88
2023-02-25T14:37:28.635Z,53.85
2023-02-25T14:40:19.497Z,51.20
2023-02-25T14:43:15.013Z,51.60
2023-02-25T14:45:46.125Z,52.07
2023-02-25T14:48:25.164Z,54.00
2023-02-25T14:51:07.661Z,54.37
2023-02-25T14:53:55.885Z,54.01
2023-02-25T14:56:56.901Z,53.65
2023-02-25T14:59:47.107Z,54.05
2023-02-25T15:02:34.531Z,53.11
2023-02-25T15:05:23.046Z,53.62
2023-02-25T15:07:55.742Z,53.16
2023-02-25T15:10:47.275Z,52.80
2023-02-25T15:13:35.225Z,52.62
2023-02-25T15:16:41.162Z,52.68
2023-02-25T15:20:02.394Z,51.82
2023-02-25T15:22:30.189Z,52.99
2023-02-25T15:25:21.313Z,54.09
2023-02-25T15:27:51.248Z,54.92
2023-02-25T15:30:23.259Z,54.83
2023-02-25T15:33:01.903Z,55.52
2023-02-25T15:35:34.213Z,55.31
2023-02-25T15:38:00.542Z,55.90
2023-02-25T15:40:33.042Z,55.95
2023-02-25T15:43:35.985Z,56.09
2023-02-25T15:46:08.395Z,55.55
2023-02-25T15:48:37.825Z,55.04
2023-02-25T15:51:08.494Z,55.38
2023-02-25T15:53:35.834Z,55.74
2023-02-25T15:56:05.425Z,56.29
2023-02-25T15:58:31.756Z,55.99
2023-02-25T16:01:07.263Z,56.39
2023-02-25T16:03:36.464Z,56.70
2023-02-25T16:06:13.606Z,56.18
2023-02-25T16:09:07.956Z,56.39
2023-02-25T16:11:53.477Z,55.81
2023-02-25T16:14:28.967Z,56.43
2023-02-25T16:17:15.945Z,56.96
2023-02-25T16:19:43.247Z,57.71
2023-02-25T16:22:21.742Z,57.90
2023-02-25T16:24:56.411Z,57.64
2023-02-25T16:27:41.285Z,58.72
2023-02-25T16:30:22.634Z,57.77
2023-02-25T16:33:14.456Z,58.01
2023-02-25T16:35:45.065Z,58.69
2023-02-25T16:38:18.769Z,58.46
2023-02-25T16:40:45.656Z,59.45
2023-02-25T16:43:15.255Z,59.33
2023-02-25T16:45:53.852Z,60.33
2023-02-25T16:48:26.889Z,60.85
2023-02-25T16:50:53.744Z,61.01
2023-02-25T16:53:23.043Z,61.82
2023-02-25T16:55:50.316Z,61.84
2023-02-25T16:58:21.462Z,61.65
2023-02-25T17:00:59.270Z,61.32
2023-02-25T17:03:28.475Z,62.04
2023-02-25T17:06:14.709Z,62.13
2023-02-25T17:08:45.770Z,62.10
2023-02-25T17:11:16.398Z,62.10
2023-02-25T17:13:43.303Z,62.74
2023-02-25T17:16:26.333Z,62.72
2023-02-25T17:18:56.123Z,62.60
2023-02-25T17:21:43.954Z,62.75
2023-02-25T17:24:15.552Z,63.19
2023-02-25T17:26:43.733Z,63.58
2023-02-25T17:29:13.108Z,64.14
2023-02-25T17:31:45.509Z,63.84
2023-02-25T17:34:14.563Z,64.29
2023-02-25T17:36:41.193Z,64.08
2023-02-25T17:39:20.138Z,64.67
2023-02-25T17:41:47.551Z,64.69
2023-02-25T17:44:47.841Z,64.93
2023-02-25T17:47:21.054Z,65.38
2023-02-25T17:49:47.659Z,65.80
2023-02-25T17:52:23.195Z,65.79
2023-02-25T17:55:01.588Z,65.91
2023-02-25T17:57:29.786Z,66.79
2023-02-25T18:00:00.426Z,66.34
2023-02-25T18:02:32.496Z,67.32
2023-02-25T18:05:13.516Z,67.20
2023-02-25T18:07:42.497Z,68.07
2023-02-25T18:10:27.291Z,69.05
2023-02-25T18:12:58.578Z,69.33
2023-02-25T18:15:27.790Z,69.81
2023-02-25T18:17:56.415Z,70.45
2023-02-25T18:20:27.331Z,70.24
2023-02-25T18:22:55.168Z,70.23
2023-02-25T18:25:38.205Z,70.90
2023-02-25T18:28:06.486Z,70.71
2023-02-25T18:30:33.185Z,71.13
2023-02-25T18:32:59.958Z,71.63
2023-02-25T18:35:27.641Z,71.92
2023-02-25T18:37:54.745Z,72.70
2023-02-25T18:40:38.140Z,72.98
2023-02-25T18:43:05.230Z,73.65
2023-02-25T18:45:33.125Z,74.48
2023-02-25T18:48:00.723Z,75.42
2023-02-25T18:50:29.871Z,76.47
2023-02-25T18:52:56.640Z,76.19
2023-02-25T18:55:26.905Z,75.67
2023-02-25T18:57:53.863Z,75.80
2023-02-25T19:00:21.868Z,76.05
2023-02-25T19:02:49.241Z,76.95
2023-02-25T19:05:16.969Z,77.00
2023-02-25T19:07:43.746Z,76.56
2023-02-25T19:10:14.274Z,76.89
2023-02-25T19:12:41.092Z,76.52
2023-02-25T19:15:14.439Z,76.65
2023-02-25T19:17:40.868Z,76.54
2023-02-25T19:20:08.877Z,76.93
2023-02-25T19:22:43.853Z,77.06
2023-02-25T19:25:34.546Z,77.30
2023-02-25T19:28:00.985Z,76.72
2023-02-25T19:30:30.930Z,75.51
2023-02-25T19:33:03.496Z,75.38
2023-02-25T19:35:33.271Z,74.77
2023-02-25T19:37:59.838Z,74.91
2023-02-25T19:40:26.539Z,74.65
2023-02-25T19:42:53.119Z,75.01
2023-02-25T19:45:21.490Z,76.17
2023-02-25T19:47:48.726Z,76.65
2023-02-25T19:50:17.017Z,76.55
2023-02-25T19:52:44.012Z,75.96
2023-02-25T19:55:12.138Z,74.93
2023-02-25T19:57:38.836Z,74.91
2023-02-25T20:00:08.938Z,74.70
2023-02-25T20:02:35.433Z,74.20
2023-02-25T20:05:01.873Z,73.73
2023-02-25T20:07:28.531Z,73.94
2023-02-25T20:09:54.899Z,73.93
2023-02-25T20:12:21.328Z,73.90
2023-02-25T20:14:47.703Z,73.91
2023-02-25T20:17:14.109Z,75.01
2023-02-25T20:19:40.634Z,74.77
2023-02-25T20:22:07.227Z,74.72
2023-02-25T20:24:34.265Z,75.62
2023-02-25T20:27:00.908Z,75.71
2023-02-25T20:29:27.462Z,75.88
2023-02-25T20:31:56.062Z,76.84
2023-02-25T20:34:26.133Z,77.65
2023-02-25T20:36:59.842Z,77.55
2023-02-25T20:39:38.280Z,77.70
2023-02-25T20:42:06.521Z,77.66
2023-02-25T20:44:32.976Z,77.79
2023-02-25T20:46:59.485Z,78.58
2023-02-25T20:49:25.938Z,79.42
2023-02-25T20:51:52.581Z,79.57
2023-02-25T20:54:19.762Z,81.82
2023-02-25T20:56:47.043Z,84.18
2023-02-25T20:59:14.423Z,86.56
2023-02-25T21:01:41.076Z,87.08
2023-02-25T21:04:08.306Z,88.57
2023-02-25T21:06:35.146Z,90.28
2023-02-25T21:09:01.540Z,92.74
2023-02-25T21:11:27.935Z,94.36
2023-02-25T21:13:54.683Z,95.53
2023-02-25T21:16:23.027Z,96.40
2023-02-25T21:18:49.778Z,98.20
2023-02-25T21:21:18.155Z,100.00
2023-02-25T21:23:44.524Z,100.00
2023-02-25T21:26:11.863Z,100.00
2023-02-25T21:28:38.709Z,100.00
2023-02-25T21:31:07.557Z,100.00
2023-02-25T21:33:34.480Z,100.00
2023-02-25T21:36:01.305Z,100.00
2023-02-25T21:38:28.334Z,100.00
2023-02-25T21:40:55.896Z,100.00
2023-02-25T21:43:23.930Z,100.00
2023-02-25T21:45:53.792Z,100.00
2023-02-25T21:48:20.673Z,100.00
2023-02-25T21:50:47.386Z,100.00
2023-02-25T21:53:13.771Z,100.00
2023-02-25T21:55:40.250Z,100.00
2023-02-25T21:58:06.631Z,100.00
2023-02-25T22:00:33.022Z,100.00
2023-02-25T22:02:59.390Z,100.00
2023-02-25T22:05:25.795Z,100.00
2023-02-25T22:07:52.173Z,100.00
2023-02-25T22:10:19.258Z,100.00
2023-02-25T22:12:45.670Z,100.00
2023-02-25T22:15:12.333Z,100.00
2023-02-25T22:17:38.740Z,100.00
2023-02-25T22:20:06.000Z,100.00
2023-02-25T22:22:32.615Z,100.00
2023-02-25T22:24:59.107Z,100.00
2023-02-25T22:27:25.519Z,100.00
2023-02-25T22:29:51.893Z,100.00
2023-02-25T22:32:18.311Z,100.00
2023-02-25T22:34:44.839Z,100.00
2023-02-25T22:37:11.216Z,100.00
2023-02-25T22:39:37.582Z,100.00
2023-02-25T22:42:03.988Z,100.00
2023-02-25T22:44:30.416Z,100.00
2023-02-25T22:46:57.016Z,100.00
2023-02-25T22:49:23.416Z,100.00
2023-02-25T22:51:50.398Z,100.00
2023-02-25T22:54:18.893Z,100.00
2023-02-25T22:56:46.210Z,100.00
2023-02-25T22:59:13.105Z,100.00
2023-02-25T23:01:40.095Z,100.00
2023-02-25T23:04:07.973Z,100.00
2023-02-25T23:06:43.324Z,100.00
2023-02-25T23:09:11.794Z,100.00
2023-02-25T23:11:40.314Z,100.00
2023-02-25T23:14:06.709Z,100.00
2023-02-25T23:16:35.097Z,100.00
2023-02-25T23:19:03.677Z,100.00
2023-02-25T23:21:30.972Z,100.00
2023-02-25T23:23:58.915Z,100.00
2023-02-25T23:26:28.478Z,100.00
2023-02-25T23:28:56.436Z,100.00
2023-02-25T23:31:28.004Z,100.00
2023-02-25T23:33:55.974Z,100.00
2023-02-25T23:36:22.655Z,100.00
2023-02-25T23:38:53.915Z,100.00
2023-02-25T23:41:20.293Z,100.00
2023-02-25T23:43:46.659Z,100.00
2023-02-25T23:46:13.141Z,100.00
2023-02-25T23:48:39.581Z,100.00
2023-02-25T23:51:07.325Z,100.00
2023-02-25T23:53:33.815Z,100.00
2023-02-25T23:56:08.586Z,100.00
2023-02-25T23:58:35.413Z,100.00
